AirNav   Air Wisconsin Up To $57,000 Bonus
 
 821 users online  

3A3 Seymour Lake Seaplane Base
Wasilla, Alaska, USA

GOING TO WASILLA?


FAA INFORMATION EFFECTIVE 08 SEPTEMBER 2022

Location

FAA Identifier: 3A3
Lat/Long: 61-36-48.4600N 149-39-56.0500W
61-36.807667N 149-39.934167W
61.6134611,-149.6655694
(estimated)
Elevation: 320 ft. / 98 m (estimated)
Variation: 22E (2000)
From city: 6 miles NW of WASILLA, AK
Time zone: UTC -8 (UTC -9 during Standard Time)
Zip code: 99654

Seaplane Base Operations

Seaplane Base use: Open to the public
Activation date: 07/2002
Control tower: no
ARTCC: ANCHORAGE CENTER
FSS: KENAI FLIGHT SERVICE STATION [907-283-7211]
NOTAMs facility: ENA (NOTAM-D service available)
Attendance: UNATNDD
Segmented circle: no

Seaplane Base Communications

CTAF: 122.8
WX AWOS-3P at IYS (4 nm SE): 135.25 (907-373-3801)
WX AWOS-3P at BCV (13 nm S): 135.55 (907-688-0826)
WX ASOS at PAQ (16 nm E): 134.75 (907-746-6675)

Nearby radio navigation aids

VOR radial/distance  VOR name  Freq  Var
BGQr054/9.0BIG LAKE VORTAC112.5019E
TEDr360/28.0ANCHORAGE VOR/DME113.1518E

Seaplane Base Services

Runway Information

Runway N/S

Dimensions: 6000 x 400 ft. / 1829 x 122 m
Surface: water
RUNWAY N  RUNWAY S
Traffic pattern: leftleft

Seaplane Base Ownership and Management from official FAA records

Ownership: Publicly-owned
Owner: STATE OF ALASKA
DEPARTMENT OF NATURAL RESOURCES, 550 W 7TH AVE STE 900C
ANCHORAGE, AK 99501-3577
Phone 907-269-8400
Manager: ROBERT J. WESLEY
PO BOX 872285, BOX 2125
WASILLA, AK 99687
Phone 907-841-8626

Seaplane Base Operational Statistics

Aircraft based on the field: 22
Single engine airplanes: 22
    
Aircraft operations: avg 42/week *
100% local general aviation
* for 12-month period ending 31 December 2018

Additional Remarks

SEYMOUR LAKE MAY BE SUBJECT TO THE MATANUSKA SUSITNA BOROUGH MOTORIZED USES ON WATER BODIES WHICH REGULATES "ANNOYING NOISES" BETWEEN THE HOURS OF 11:00 P.M. AND 8:00 A.M.
NO SVC OF ANY TYPE AVBL TO TRAN ACFT.
PUBLIC ACCESS ON WEST SIDE OF LAKE. BEACH LNDG AVBL.

Instrument Procedures

There are no published instrument procedures at 3A3.

Some nearby airports with instrument procedures:

PAWS - Wasilla Airport (4 nm SE)
PAGQ - Big Lake Airport (6 nm SW)
PAUO - Willow Airport (14 nm NW)
PAAQ - Warren "Bud" Woods Palmer Municipal Airport (16 nm E)
PAFR - Bryant Army Airfield Heliport (21 nm S)
 
Loc | Ops | Rwys | IFR | FBO | Links
Com | Nav | Svcs | Stats | Notes

Crowley Maritime Corporation
 
Area around 3A3 (Seymour Lake Seaplane Base)
 
Road maps at: MapQuest Bing Google
 
Aerial photo
WARNING: Photo may not be current or correct
Aerial photo of 3A3 (Seymour Lake Seaplane Base)
Do you have a better or more recent aerial photo of Seymour Lake Seaplane Base that you would like to share? If so, please send us your photo.

 
Sectional chart

 
Airport distance calculator
Flying to Seymour Lake Seaplane Base? Find the distance to fly.

From to 3A3

Sunrise and sunset
Times for 24-Sep-2022
 Local
(UTC-8)
 Zulu
(UTC)
Morning civil twilight07:0515:05
Sunrise07:4915:49
Sunset19:5203:52
Evening civil twilight20:3604:36

Current date and time
Zulu (UTC)  25-Sep-2022 03:59:22
Local (UTC-8)  24-Sep-2022 19:59:22
 
METAR
PABV 
13nm S 
250256Z AUTO 24003KT 7SM FEW080 SCT100 10/06 A2962 RMK AO2 SLP036 T01000061 56002
PAAQ 
17nm E 
250353Z AUTO 14010KT 10SM OVC100 09/02 A2962 RMK AO2 SLP033 T00890022 TSNO
PAFR 
21nm S 
250255Z AUTO 06003KT 9SM BKN065 OVC100 09/04 A2957 RMK AO2 SLP020 T00940042 55002 FZRANO VISNO RWY35 CHINO RWY35 $
PAED 
22nm S 
250322Z AUTO 27008KT 10SM -DZ FEW034 BKN048 OVC065 09/06 A2960 RMK AO2 DZB22 SLP020
PAMR 
24nm S 
250353Z 00000KT 10SM FEW050 OVC065 09/05 A2962 RMK AO2 RAB16E46 SLP030 P0000 T00890050
TAF
PAAQ 
17nm E 
241720Z 2418/2518 35007KT P6SM VCSH SCT040 BKN100 FM242100 14009KT P6SM VCSH SCT040 BKN070 FM250800 11006KT P6SM -SHRA SCT030 OVC050 FM251400 VRB06KT P6SM VCSH SCT035 BKN050
NOTAMs
Click for the latest NOTAMs
NOTAMs are issued by the DoD/FAA and will open in a separate window not controlled by AirNav.

 

 
 

Would you like to see your business listed on this page?

 If your business provides an interesting product or service to pilots, flight crews, aircraft, or users of the Seymour Lake Seaplane Base, you should consider listing it here.  To start the listing process, click on the button below
 
Add a business
 

Other Pages about Seymour Lake Seaplane Base

Update a link
 
Copyright © AirNav, LLC. All rights reserved. Privacy Policy  Contact